sensor_id;sensor_type;location;lat;lon;timestamp;P1;durP1;ratioP1;P2;durP2;ratioP2
41456;SDS011;27197;51.752;5.220;2023-06-26T12:22:09;2.22;;;0.95;;
41456;SDS011;27197;51.752;5.220;2023-06-26T12:24:41;2.87;;;0.85;;
41456;SDS011;27197;51.752;5.220;2023-06-26T12:27:17;2.30;;;0.85;;
41456;SDS011;27197;51.752;5.220;2023-06-26T12:29:53;2.37;;;0.98;;
41456;SDS011;27197;51.752;5.220;2023-06-26T12:32:25;1.85;;;0.80;;
41456;SDS011;27197;51.752;5.220;2023-06-26T12:34:59;2.37;;;0.98;;
41456;SDS011;27197;51.752;5.220;2023-06-26T12:37:36;1.62;;;0.93;;
41456;SDS011;27197;51.752;5.220;2023-06-26T12:40:17;2.85;;;1.00;;
41456;SDS011;27197;51.752;5.220;2023-06-26T12:42:48;1.37;;;0.80;;
41456;SDS011;27197;51.752;5.220;2023-06-26T12:45:18;3.25;;;1.00;;
41456;SDS011;27197;51.752;5.220;2023-06-26T12:47:47;1.85;;;0.95;;
41456;SDS011;27197;51.752;5.220;2023-06-26T12:50:18;3.20;;;1.10;;
41456;SDS011;27197;51.752;5.220;2023-06-26T12:52:48;2.62;;;0.88;;
41456;SDS011;27197;51.752;5.220;2023-06-26T12:55:22;4.30;;;1.00;;
41456;SDS011;27197;51.752;5.220;2023-06-26T12:57:51;2.67;;;1.05;;
41456;SDS011;27197;51.752;5.220;2023-06-26T13:00:25;2.25;;;0.82;;
41456;SDS011;27197;51.752;5.220;2023-06-26T13:02:55;2.35;;;1.10;;
41456;SDS011;27197;51.752;5.220;2023-06-26T13:05:31;2.52;;;0.78;;
41456;SDS011;27197;51.752;5.220;2023-06-26T13:08:03;2.92;;;0.90;;
41456;SDS011;27197;51.752;5.220;2023-06-26T13:10:37;2.30;;;1.07;;
41456;SDS011;27197;51.752;5.220;2023-06-26T13:13:06;2.72;;;1.20;;
41456;SDS011;27197;51.752;5.220;2023-06-26T13:15:37;2.58;;;0.90;;
41456;SDS011;27197;51.752;5.220;2023-06-26T13:18:06;2.80;;;0.80;;
41456;SDS011;27197;51.752;5.220;2023-06-26T13:20:37;1.80;;;0.60;;
41456;SDS011;27197;51.752;5.220;2023-06-26T13:23:08;4.33;;;1.22;;
41456;SDS011;27197;51.752;5.220;2023-06-26T13:25:42;2.25;;;0.75;;
41456;SDS011;27197;51.752;5.220;2023-06-26T13:28:15;2.95;;;1.00;;
41456;SDS011;27197;51.752;5.220;2023-06-26T13:30:47;2.25;;;0.80;;
41456;SDS011;27197;51.752;5.220;2023-06-26T13:33:16;2.47;;;0.90;;
41456;SDS011;27197;51.752;5.220;2023-06-26T13:35:46;3.87;;;1.05;;
41456;SDS011;27197;51.752;5.220;2023-06-26T13:38:17;2.05;;;0.80;;
41456;SDS011;27197;51.752;5.220;2023-06-26T13:40:50;1.65;;;0.80;;
41456;SDS011;27197;51.752;5.220;2023-06-26T13:43:23;1.62;;;0.80;;
41456;SDS011;27197;51.752;5.220;2023-06-26T13:45:52;2.22;;;1.00;;
41456;SDS011;27197;51.752;5.220;2023-06-26T13:48:25;2.10;;;0.93;;
41456;SDS011;27197;51.752;5.220;2023-06-26T13:50:55;1.57;;;0.65;;
41456;SDS011;27197;51.752;5.220;2023-06-26T13:53:26;1.35;;;0.80;;
41456;SDS011;27197;51.752;5.220;2023-06-26T13:55:56;1.85;;;0.78;;
41456;SDS011;27197;51.752;5.220;2023-06-26T13:58:27;1.57;;;0.88;;
41456;SDS011;27197;51.752;5.220;2023-06-26T14:00:58;1.40;;;0.75;;
41456;SDS011;27197;51.752;5.220;2023-06-26T14:03:34;0.90;;;0.57;;
41456;SDS011;27197;51.752;5.220;2023-06-26T14:06:04;2.52;;;0.90;;
41456;SDS011;27197;51.752;5.220;2023-06-26T14:08:37;2.65;;;0.95;;
41456;SDS011;27197;51.752;5.220;2023-06-26T14:11:09;1.32;;;0.80;;
41456;SDS011;27197;51.752;5.220;2023-06-26T14:13:41;2.45;;;0.80;;
41456;SDS011;27197;51.752;5.220;2023-06-26T14:16:10;1.50;;;0.75;;
41456;SDS011;27197;51.752;5.220;2023-06-26T14:18:40;1.25;;;0.60;;
41456;SDS011;27197;51.752;5.220;2023-06-26T14:21:10;2.80;;;0.80;;
41456;SDS011;27197;51.752;5.220;2023-06-26T14:23:45;1.52;;;0.78;;
41456;SDS011;27197;51.752;5.220;2023-06-26T14:26:15;1.52;;;0.80;;
41456;SDS011;27197;51.752;5.220;2023-06-26T14:28:45;1.95;;;0.80;;
41456;SDS011;27197;51.752;5.220;2023-06-26T14:31:15;1.52;;;0.75;;
41456;SDS011;27197;51.752;5.220;2023-06-26T14:33:47;2.15;;;0.90;;
41456;SDS011;27197;51.752;5.220;2023-06-26T14:36:19;3.15;;;0.72;;
41456;SDS011;27197;51.752;5.220;2023-06-26T14:38:49;1.90;;;0.80;;
41456;SDS011;27197;51.752;5.220;2023-06-26T14:41:20;1.35;;;0.85;;
41456;SDS011;27197;51.752;5.220;2023-06-26T14:43:55;1.45;;;0.88;;
41456;SDS011;27197;51.752;5.220;2023-06-26T14:46:25;2.22;;;1.10;;
41456;SDS011;27197;51.752;5.220;2023-06-26T14:49:00;2.45;;;0.90;;
41456;SDS011;27197;51.752;5.220;2023-06-26T14:51:30;1.70;;;0.90;;
41456;SDS011;27197;51.752;5.220;2023-06-26T14:54:00;3.35;;;0.90;;
41456;SDS011;27197;51.752;5.220;2023-06-26T14:56:28;4.10;;;0.75;;
41456;SDS011;27197;51.752;5.220;2023-06-26T14:58:58;2.25;;;0.72;;
41456;SDS011;27197;51.752;5.220;2023-06-26T15:01:28;1.82;;;1.00;;
41456;SDS011;27197;51.752;5.220;2023-06-26T15:03:59;1.62;;;0.82;;
41456;SDS011;27197;51.752;5.220;2023-06-26T15:06:33;1.30;;;0.78;;
41456;SDS011;27197;51.752;5.220;2023-06-26T15:09:03;2.05;;;0.98;;
41456;SDS011;27197;51.752;5.220;2023-06-26T15:11:36;2.47;;;0.82;;
41456;SDS011;27197;51.752;5.220;2023-06-26T15:14:06;2.50;;;0.93;;
41456;SDS011;27197;51.752;5.220;2023-06-26T15:16:36;2.15;;;1.20;;
41456;SDS011;27197;51.752;5.220;2023-06-26T15:19:07;2.80;;;1.30;;
41456;SDS011;27197;51.752;5.220;2023-06-26T15:21:38;1.95;;;1.25;;
41456;SDS011;27197;51.752;5.220;2023-06-26T15:24:08;1.77;;;1.17;;
41456;SDS011;27197;51.752;5.220;2023-06-26T15:26:38;1.70;;;0.90;;
41456;SDS011;27197;51.752;5.220;2023-06-26T15:29:08;2.87;;;1.20;;
41456;SDS011;27197;51.752;5.220;2023-06-26T15:31:39;3.58;;;1.20;;
41456;SDS011;27197;51.752;5.220;2023-06-26T15:34:10;1.72;;;1.00;;
41456;SDS011;27197;51.752;5.220;2023-06-26T15:36:43;1.72;;;0.90;;
41456;SDS011;27197;51.752;5.220;2023-06-26T15:39:15;1.62;;;0.90;;
41456;SDS011;27197;51.752;5.220;2023-06-26T15:41:45;2.10;;;1.02;;
41456;SDS011;27197;51.752;5.220;2023-06-26T15:44:15;3.58;;;1.90;;
41456;SDS011;27197;51.752;5.220;2023-06-26T15:46:49;5.20;;;1.20;;
41456;SDS011;27197;51.752;5.220;2023-06-26T15:49:22;2.20;;;0.90;;
41456;SDS011;27197;51.752;5.220;2023-06-26T15:51:53;2.98;;;1.00;;
41456;SDS011;27197;51.752;5.220;2023-06-26T15:54:25;3.52;;;1.30;;
41456;SDS011;27197;51.752;5.220;2023-06-26T15:56:56;1.40;;;0.90;;
41456;SDS011;27197;51.752;5.220;2023-06-26T15:59:28;2.42;;;1.10;;
41456;SDS011;27197;51.752;5.220;2023-06-26T16:02:01;3.25;;;1.15;;
41456;SDS011;27197;51.752;5.220;2023-06-26T16:04:32;1.50;;;0.98;;
41456;SDS011;27197;51.752;5.220;2023-06-26T16:07:01;1.87;;;0.95;;
41456;SDS011;27197;51.752;5.220;2023-06-26T16:09:31;3.02;;;1.12;;
41456;SDS011;27197;51.752;5.220;2023-06-26T16:12:03;1.55;;;1.00;;
41456;SDS011;27197;51.752;5.220;2023-06-26T16:14:35;1.80;;;1.10;;
41456;SDS011;27197;51.752;5.220;2023-06-26T16:17:06;2.62;;;1.50;;
41456;SDS011;27197;51.752;5.220;2023-06-26T16:19:38;2.55;;;1.02;;
41456;SDS011;27197;51.752;5.220;2023-06-26T16:22:10;2.47;;;1.20;;
41456;SDS011;27197;51.752;5.220;2023-06-26T16:24:40;2.30;;;1.25;;
41456;SDS011;27197;51.752;5.220;2023-06-26T16:27:10;2.83;;;1.45;;
41456;SDS011;27197;51.752;5.220;2023-06-26T16:29:45;2.95;;;1.30;;
41456;SDS011;27197;51.752;5.220;2023-06-26T16:32:15;2.98;;;1.70;;
41456;SDS011;27197;51.752;5.220;2023-06-26T16:34:47;2.27;;;1.20;;
41456;SDS011;27197;51.752;5.220;2023-06-26T16:37:17;2.47;;;1.10;;
41456;SDS011;27197;51.752;5.220;2023-06-26T16:39:47;4.33;;;1.10;;
41456;SDS011;27197;51.752;5.220;2023-06-26T16:42:17;1.52;;;0.90;;
41456;SDS011;27197;51.752;5.220;2023-06-26T16:44:49;1.95;;;1.10;;
41456;SDS011;27197;51.752;5.220;2023-06-26T16:47:19;1.70;;;1.10;;
41456;SDS011;27197;51.752;5.220;2023-06-26T16:49:49;1.98;;;1.20;;
41456;SDS011;27197;51.752;5.220;2023-06-26T16:52:19;2.67;;;1.30;;
41456;SDS011;27197;51.752;5.220;2023-06-26T16:54:49;2.70;;;1.70;;
41456;SDS011;27197;51.752;5.220;2023-06-26T16:59:46;2.25;;;1.20;;
41456;SDS011;27197;51.752;5.220;2023-06-26T17:02:18;2.33;;;1.17;;
41456;SDS011;27197;51.752;5.220;2023-06-26T17:04:48;1.65;;;1.10;;
41456;SDS011;27197;51.752;5.220;2023-06-26T17:07:18;1.98;;;0.93;;
41456;SDS011;27197;51.752;5.220;2023-06-26T17:09:48;2.70;;;1.40;;
41456;SDS011;27197;51.752;5.220;2023-06-26T17:12:18;2.35;;;1.20;;
41456;SDS011;27197;51.752;5.220;2023-06-26T17:14:48;2.22;;;1.32;;
41456;SDS011;27197;51.752;5.220;2023-06-26T17:17:18;2.75;;;1.10;;
41456;SDS011;27197;51.752;5.220;2023-06-26T17:19:48;1.60;;;1.00;;
41456;SDS011;27197;51.752;5.220;2023-06-26T17:22:19;2.52;;;1.37;;
41456;SDS011;27197;51.752;5.220;2023-06-26T17:24:49;2.65;;;1.30;;
41456;SDS011;27197;51.752;5.220;2023-06-26T17:27:19;2.40;;;1.47;;
41456;SDS011;27197;51.752;5.220;2023-06-26T17:29:50;1.92;;;1.15;;
41456;SDS011;27197;51.752;5.220;2023-06-26T17:32:21;2.22;;;1.52;;
41456;SDS011;27197;51.752;5.220;2023-06-26T17:34:52;2.33;;;1.17;;
41456;SDS011;27197;51.752;5.220;2023-06-26T17:37:22;2.42;;;1.50;;
41456;SDS011;27197;51.752;5.220;2023-06-26T17:39:54;4.87;;;1.67;;
41456;SDS011;27197;51.752;5.220;2023-06-26T17:42:25;1.62;;;0.80;;
41456;SDS011;27197;51.752;5.220;2023-06-26T17:44:58;2.77;;;1.40;;
41456;SDS011;27197;51.752;5.220;2023-06-26T17:47:28;2.52;;;1.17;;
41456;SDS011;27197;51.752;5.220;2023-06-26T17:49:58;5.97;;;1.20;;
41456;SDS011;27197;51.752;5.220;2023-06-26T17:52:28;1.60;;;1.00;;
41456;SDS011;27197;51.752;5.220;2023-06-26T17:54:59;3.22;;;1.17;;
41456;SDS011;27197;51.752;5.220;2023-06-26T17:57:28;2.62;;;1.12;;
41456;SDS011;27197;51.752;5.220;2023-06-26T17:59:59;3.02;;;1.15;;
41456;SDS011;27197;51.752;5.220;2023-06-26T18:02:30;5.78;;;1.47;;
41456;SDS011;27197;51.752;5.220;2023-06-26T18:05:02;5.62;;;1.40;;
41456;SDS011;27197;51.752;5.220;2023-06-26T18:07:35;2.95;;;1.35;;
41456;SDS011;27197;51.752;5.220;2023-06-26T18:10:05;3.33;;;1.50;;
41456;SDS011;27197;51.752;5.220;2023-06-26T18:12:36;3.70;;;1.17;;
41456;SDS011;27197;51.752;5.220;2023-06-26T18:15:08;3.22;;;1.02;;
41456;SDS011;27197;51.752;5.220;2023-06-26T18:17:41;4.22;;;1.42;;
41456;SDS011;27197;51.752;5.220;2023-06-26T18:20:11;2.95;;;1.10;;
41456;SDS011;27197;51.752;5.220;2023-06-26T18:22:44;4.50;;;1.62;;
41456;SDS011;27197;51.752;5.220;2023-06-26T18:25:15;8.30;;;2.47;;
41456;SDS011;27197;51.752;5.220;2023-06-26T18:27:49;5.65;;;1.70;;
41456;SDS011;27197;51.752;5.220;2023-06-26T18:30:19;6.50;;;2.12;;
41456;SDS011;27197;51.752;5.220;2023-06-26T18:32:51;7.28;;;2.42;;
41456;SDS011;27197;51.752;5.220;2023-06-26T18:35:20;8.98;;;2.17;;
41456;SDS011;27197;51.752;5.220;2023-06-26T18:37:50;4.08;;;1.72;;
41456;SDS011;27197;51.752;5.220;2023-06-26T18:40:25;4.78;;;1.60;;
41456;SDS011;27197;51.752;5.220;2023-06-26T18:42:55;2.83;;;1.50;;
41456;SDS011;27197;51.752;5.220;2023-06-26T18:45:25;4.92;;;1.60;;
41456;SDS011;27197;51.752;5.220;2023-06-26T18:47:55;6.78;;;2.15;;
41456;SDS011;27197;51.752;5.220;2023-06-26T18:50:26;3.27;;;1.32;;
41456;SDS011;27197;51.752;5.220;2023-06-26T18:52:55;4.22;;;1.47;;
